Whitacre, Virginia
Current Conditions -  °F | °C
As of 8:53 AM on Monday 24 Nov 2014 (Local Time) from KMRB Reporting Station
Clear Clear  
Wind Chill: 58°   Ceiling: Unl
Heat Index: 58°   Visibility: 10mi
Dew Point: 53°   Wind: 9mph
Humidity: 84%   Direction: 170°S
Pressure: 29.63"   Gusts: NA
Location:  39.3835°N, 78.3051°W
Report Text: KMRB 241353Z 17008KT 10SM CLR 14/12 A2963 RMK AO2 SLP031 T01440117
Loading
Personal Weather Stations






























Interactive Weather Map New forecast layout! Learn more

10-Day Weather Forecast

Advertisements
Track Severe Weather on mobile